sensor_id;sensor_type;location;lat;lon;timestamp;temperature;humidity
27797;DHT22;15177;50.844;4.412;2024-02-16T00:01:39;14.10;99.90
27797;DHT22;15177;50.844;4.412;2024-02-16T00:04:09;14.10;99.90
27797;DHT22;15177;50.844;4.412;2024-02-16T00:06:34;14.30;99.90
27797;DHT22;15177;50.844;4.412;2024-02-16T00:09:00;14.40;99.90
27797;DHT22;15177;50.844;4.412;2024-02-16T00:11:26;14.40;99.90
27797;DHT22;15177;50.844;4.412;2024-02-16T00:13:53;14.30;99.90
27797;DHT22;15177;50.844;4.412;2024-02-16T00:16:18;14.40;99.90
27797;DHT22;15177;50.844;4.412;2024-02-16T00:18:44;14.40;99.90
27797;DHT22;15177;50.844;4.412;2024-02-16T00:21:10;14.30;99.90
27797;DHT22;15177;50.844;4.412;2024-02-16T00:23:35;14.40;99.90
27797;DHT22;15177;50.844;4.412;2024-02-16T00:26:03;14.40;99.90
27797;DHT22;15177;50.844;4.412;2024-02-16T00:28:33;14.50;99.90
27797;DHT22;15177;50.844;4.412;2024-02-16T00:30:59;14.40;99.90
27797;DHT22;15177;50.844;4.412;2024-02-16T00:33:24;14.40;99.90
27797;DHT22;15177;50.844;4.412;2024-02-16T00:35:50;14.50;99.90
27797;DHT22;15177;50.844;4.412;2024-02-16T00:38:18;14.50;99.90
27797;DHT22;15177;50.844;4.412;2024-02-16T00:40:46;14.50;99.90
27797;DHT22;15177;50.844;4.412;2024-02-16T00:43:15;14.40;99.90
27797;DHT22;15177;50.844;4.412;2024-02-16T00:45:43;14.30;99.90
27797;DHT22;15177;50.844;4.412;2024-02-16T00:48:10;14.30;99.90
27797;DHT22;15177;50.844;4.412;2024-02-16T00:50:40;14.30;99.90
27797;DHT22;15177;50.844;4.412;2024-02-16T00:53:08;14.30;99.90
27797;DHT22;15177;50.844;4.412;2024-02-16T00:55:33;14.30;99.90
27797;DHT22;15177;50.844;4.412;2024-02-16T00:57:59;14.20;99.90
27797;DHT22;15177;50.844;4.412;2024-02-16T01:00:25;14.30;99.90
27797;DHT22;15177;50.844;4.412;2024-02-16T01:02:54;14.00;99.90
27797;DHT22;15177;50.844;4.412;2024-02-16T01:05:19;14.10;99.90
27797;DHT22;15177;50.844;4.412;2024-02-16T01:07:45;14.20;99.90
27797;DHT22;15177;50.844;4.412;2024-02-16T01:10:11;14.30;99.90
27797;DHT22;15177;50.844;4.412;2024-02-16T01:12:37;14.20;99.90
27797;DHT22;15177;50.844;4.412;2024-02-16T01:15:06;14.10;99.90
27797;DHT22;15177;50.844;4.412;2024-02-16T01:17:34;14.20;99.90
27797;DHT22;15177;50.844;4.412;2024-02-16T01:20:01;14.10;99.90
27797;DHT22;15177;50.844;4.412;2024-02-16T01:22:27;14.30;99.90
27797;DHT22;15177;50.844;4.412;2024-02-16T01:24:54;14.40;99.90
27797;DHT22;15177;50.844;4.412;2024-02-16T01:27:20;14.30;99.90
27797;DHT22;15177;50.844;4.412;2024-02-16T01:29:46;14.30;99.90
27797;DHT22;15177;50.844;4.412;2024-02-16T01:32:12;14.10;99.90
27797;DHT22;15177;50.844;4.412;2024-02-16T01:34:40;14.10;99.90
27797;DHT22;15177;50.844;4.412;2024-02-16T01:37:06;14.10;99.90
27797;DHT22;15177;50.844;4.412;2024-02-16T01:39:31;14.00;99.90
27797;DHT22;15177;50.844;4.412;2024-02-16T01:41:57;14.10;99.90
27797;DHT22;15177;50.844;4.412;2024-02-16T01:44:23;14.30;99.90
27797;DHT22;15177;50.844;4.412;2024-02-16T01:46:51;14.40;99.90
27797;DHT22;15177;50.844;4.412;2024-02-16T01:49:17;14.30;99.90
27797;DHT22;15177;50.844;4.412;2024-02-16T01:51:42;14.30;99.90
27797;DHT22;15177;50.844;4.412;2024-02-16T01:54:11;14.30;99.90
27797;DHT22;15177;50.844;4.412;2024-02-16T01:56:36;14.10;99.90
27797;DHT22;15177;50.844;4.412;2024-02-16T01:59:02;14.00;99.90
27797;DHT22;15177;50.844;4.412;2024-02-16T02:01:30;14.10;99.90
27797;DHT22;15177;50.844;4.412;2024-02-16T02:03:58;14.10;99.90
27797;DHT22;15177;50.844;4.412;2024-02-16T02:06:24;14.20;99.90
27797;DHT22;15177;50.844;4.412;2024-02-16T02:08:49;14.10;99.90
27797;DHT22;15177;50.844;4.412;2024-02-16T02:11:15;14.10;99.90
27797;DHT22;15177;50.844;4.412;2024-02-16T02:13:41;14.30;99.90
27797;DHT22;15177;50.844;4.412;2024-02-16T02:16:07;14.30;99.90
27797;DHT22;15177;50.844;4.412;2024-02-16T02:18:34;14.10;99.90
27797;DHT22;15177;50.844;4.412;2024-02-16T02:20:59;14.00;99.90
27797;DHT22;15177;50.844;4.412;2024-02-16T02:23:27;14.20;99.90
27797;DHT22;15177;50.844;4.412;2024-02-16T02:25:56;14.10;99.90
27797;DHT22;15177;50.844;4.412;2024-02-16T02:28:26;14.30;99.90
27797;DHT22;15177;50.844;4.412;2024-02-16T02:30:55;14.30;99.90
27797;DHT22;15177;50.844;4.412;2024-02-16T02:33:23;14.40;99.90
27797;DHT22;15177;50.844;4.412;2024-02-16T02:35:51;14.50;99.90
27797;DHT22;15177;50.844;4.412;2024-02-16T02:38:17;14.40;99.90
27797;DHT22;15177;50.844;4.412;2024-02-16T02:40:43;14.50;99.90
27797;DHT22;15177;50.844;4.412;2024-02-16T02:43:09;14.40;99.90
27797;DHT22;15177;50.844;4.412;2024-02-16T02:45:34;14.40;99.90
27797;DHT22;15177;50.844;4.412;2024-02-16T02:48:00;14.50;99.90
27797;DHT22;15177;50.844;4.412;2024-02-16T02:50:28;14.40;99.90
27797;DHT22;15177;50.844;4.412;2024-02-16T02:52:54;14.40;99.90
27797;DHT22;15177;50.844;4.412;2024-02-16T02:55:22;14.50;99.90
27797;DHT22;15177;50.844;4.412;2024-02-16T02:57:52;14.50;99.90
27797;DHT22;15177;50.844;4.412;2024-02-16T03:00:18;14.60;99.90
27797;DHT22;15177;50.844;4.412;2024-02-16T03:02:43;14.70;99.90
27797;DHT22;15177;50.844;4.412;2024-02-16T03:05:12;14.60;99.90
27797;DHT22;15177;50.844;4.412;2024-02-16T03:07:38;14.50;99.90
27797;DHT22;15177;50.844;4.412;2024-02-16T03:10:04;14.50;99.90
27797;DHT22;15177;50.844;4.412;2024-02-16T03:12:34;14.40;99.90
27797;DHT22;15177;50.844;4.412;2024-02-16T03:15:02;14.50;99.90
27797;DHT22;15177;50.844;4.412;2024-02-16T03:17:29;14.60;99.90
27797;DHT22;15177;50.844;4.412;2024-02-16T03:19:56;14.50;99.90
27797;DHT22;15177;50.844;4.412;2024-02-16T03:22:25;14.50;99.90
27797;DHT22;15177;50.844;4.412;2024-02-16T03:24:50;14.40;99.90
27797;DHT22;15177;50.844;4.412;2024-02-16T03:27:17;14.40;99.90
27797;DHT22;15177;50.844;4.412;2024-02-16T03:29:46;14.40;99.90
27797;DHT22;15177;50.844;4.412;2024-02-16T03:32:12;14.50;99.90
27797;DHT22;15177;50.844;4.412;2024-02-16T03:34:40;14.60;99.90
27797;DHT22;15177;50.844;4.412;2024-02-16T03:37:08;14.50;99.90
27797;DHT22;15177;50.844;4.412;2024-02-16T03:39:36;14.40;99.90
27797;DHT22;15177;50.844;4.412;2024-02-16T03:42:02;14.40;99.90
27797;DHT22;15177;50.844;4.412;2024-02-16T03:44:27;14.40;99.90
27797;DHT22;15177;50.844;4.412;2024-02-16T03:46:56;14.50;99.90
27797;DHT22;15177;50.844;4.412;2024-02-16T03:49:25;14.50;99.90
27797;DHT22;15177;50.844;4.412;2024-02-16T03:51:55;14.50;99.90
27797;DHT22;15177;50.844;4.412;2024-02-16T03:54:23;14.50;99.90
27797;DHT22;15177;50.844;4.412;2024-02-16T03:56:53;14.40;99.90
27797;DHT22;15177;50.844;4.412;2024-02-16T03:59:19;14.30;99.90
27797;DHT22;15177;50.844;4.412;2024-02-16T04:01:47;14.30;99.90
27797;DHT22;15177;50.844;4.412;2024-02-16T04:04:15;14.30;99.90
27797;DHT22;15177;50.844;4.412;2024-02-16T04:06:41;14.50;99.90
27797;DHT22;15177;50.844;4.412;2024-02-16T04:09:06;14.60;99.90
27797;DHT22;15177;50.844;4.412;2024-02-16T04:11:35;14.50;99.90
27797;DHT22;15177;50.844;4.412;2024-02-16T04:14:01;14.60;99.90
27797;DHT22;15177;50.844;4.412;2024-02-16T04:16:27;14.60;99.90
27797;DHT22;15177;50.844;4.412;2024-02-16T04:18:53;14.60;99.90
27797;DHT22;15177;50.844;4.412;2024-02-16T04:21:19;14.60;99.90
27797;DHT22;15177;50.844;4.412;2024-02-16T04:23:48;14.80;99.90
27797;DHT22;15177;50.844;4.412;2024-02-16T04:26:16;14.70;99.90
27797;DHT22;15177;50.844;4.412;2024-02-16T04:28:42;14.70;99.90
27797;DHT22;15177;50.844;4.412;2024-02-16T04:31:10;14.60;99.90
27797;DHT22;15177;50.844;4.412;2024-02-16T04:33:35;14.70;99.90
27797;DHT22;15177;50.844;4.412;2024-02-16T04:36:01;14.70;99.90
27797;DHT22;15177;50.844;4.412;2024-02-16T04:38:26;14.70;99.90
27797;DHT22;15177;50.844;4.412;2024-02-16T04:40:52;14.70;99.90
27797;DHT22;15177;50.844;4.412;2024-02-16T04:43:18;14.60;99.90
27797;DHT22;15177;50.844;4.412;2024-02-16T04:45:46;14.80;99.90
27797;DHT22;15177;50.844;4.412;2024-02-16T04:48:14;14.80;99.90
27797;DHT22;15177;50.844;4.412;2024-02-16T04:50:40;14.80;99.90
27797;DHT22;15177;50.844;4.412;2024-02-16T04:53:05;14.80;99.90
27797;DHT22;15177;50.844;4.412;2024-02-16T04:55:33;14.80;99.90
27797;DHT22;15177;50.844;4.412;2024-02-16T04:57:59;14.90;99.90
27797;DHT22;15177;50.844;4.412;2024-02-16T05:00:30;14.80;99.90
27797;DHT22;15177;50.844;4.412;2024-02-16T05:02:55;14.90;99.90
27797;DHT22;15177;50.844;4.412;2024-02-16T05:05:21;14.90;99.90
27797;DHT22;15177;50.844;4.412;2024-02-16T05:07:50;14.90;99.90
27797;DHT22;15177;50.844;4.412;2024-02-16T05:10:16;14.70;99.90
27797;DHT22;15177;50.844;4.412;2024-02-16T05:12:44;14.80;99.90
27797;DHT22;15177;50.844;4.412;2024-02-16T05:15:11;14.80;99.90
27797;DHT22;15177;50.844;4.412;2024-02-16T05:17:39;14.90;99.90
27797;DHT22;15177;50.844;4.412;2024-02-16T05:20:14;14.90;99.90
27797;DHT22;15177;50.844;4.412;2024-02-16T05:22:45;14.90;99.90
27797;DHT22;15177;50.844;4.412;2024-02-16T05:25:18;15.00;99.90
27797;DHT22;15177;50.844;4.412;2024-02-16T05:27:46;15.00;99.90
27797;DHT22;15177;50.844;4.412;2024-02-16T05:30:15;14.90;99.90
27797;DHT22;15177;50.844;4.412;2024-02-16T05:32:44;15.00;99.90
27797;DHT22;15177;50.844;4.412;2024-02-16T05:35:10;15.00;99.90
27797;DHT22;15177;50.844;4.412;2024-02-16T05:37:46;14.90;99.90
27797;DHT22;15177;50.844;4.412;2024-02-16T05:40:17;14.90;99.90
27797;DHT22;15177;50.844;4.412;2024-02-16T05:42:57;14.90;99.90
27797;DHT22;15177;50.844;4.412;2024-02-16T05:45:26;15.00;99.90
27797;DHT22;15177;50.844;4.412;2024-02-16T05:47:52;15.00;99.90
27797;DHT22;15177;50.844;4.412;2024-02-16T05:50:21;15.00;99.90
27797;DHT22;15177;50.844;4.412;2024-02-16T05:52:47;15.00;99.90
27797;DHT22;15177;50.844;4.412;2024-02-16T05:55:15;15.00;99.90
27797;DHT22;15177;50.844;4.412;2024-02-16T05:57:40;15.10;99.90
27797;DHT22;15177;50.844;4.412;2024-02-16T06:00:08;15.00;99.90
27797;DHT22;15177;50.844;4.412;2024-02-16T06:02:34;15.00;99.90
27797;DHT22;15177;50.844;4.412;2024-02-16T06:05:03;14.90;99.90
27797;DHT22;15177;50.844;4.412;2024-02-16T06:07:34;15.00;99.90
27797;DHT22;15177;50.844;4.412;2024-02-16T06:10:03;14.90;99.90
27797;DHT22;15177;50.844;4.412;2024-02-16T06:12:36;15.00;99.90
27797;DHT22;15177;50.844;4.412;2024-02-16T06:15:02;15.00;99.90
27797;DHT22;15177;50.844;4.412;2024-02-16T06:17:28;15.00;99.90
27797;DHT22;15177;50.844;4.412;2024-02-16T06:19:54;14.90;99.90
27797;DHT22;15177;50.844;4.412;2024-02-16T06:22:24;14.90;99.90
27797;DHT22;15177;50.844;4.412;2024-02-16T06:24:52;14.90;99.90
27797;DHT22;15177;50.844;4.412;2024-02-16T06:27:20;14.90;99.90
27797;DHT22;15177;50.844;4.412;2024-02-16T06:29:46;15.00;99.90
27797;DHT22;15177;50.844;4.412;2024-02-16T06:32:11;15.00;99.90
27797;DHT22;15177;50.844;4.412;2024-02-16T06:34:37;14.90;99.90
27797;DHT22;15177;50.844;4.412;2024-02-16T06:37:03;14.90;99.90
27797;DHT22;15177;50.844;4.412;2024-02-16T06:39:29;14.80;99.90
27797;DHT22;15177;50.844;4.412;2024-02-16T06:41:58;14.80;99.90
27797;DHT22;15177;50.844;4.412;2024-02-16T06:44:31;14.80;99.90
27797;DHT22;15177;50.844;4.412;2024-02-16T06:46:57;14.70;99.90
27797;DHT22;15177;50.844;4.412;2024-02-16T06:49:22;14.70;99.90
27797;DHT22;15177;50.844;4.412;2024-02-16T06:51:50;14.70;99.90
27797;DHT22;15177;50.844;4.412;2024-02-16T06:54:16;14.70;99.90
27797;DHT22;15177;50.844;4.412;2024-02-16T06:56:42;14.70;99.90
27797;DHT22;15177;50.844;4.412;2024-02-16T06:59:07;14.80;99.90
27797;DHT22;15177;50.844;4.412;2024-02-16T07:01:34;14.80;99.90
27797;DHT22;15177;50.844;4.412;2024-02-16T07:04:00;14.80;99.90
27797;DHT22;15177;50.844;4.412;2024-02-16T07:06:29;14.80;99.90
27797;DHT22;15177;50.844;4.412;2024-02-16T07:08:55;14.80;99.90
27797;DHT22;15177;50.844;4.412;2024-02-16T07:11:21;14.90;99.90
27797;DHT22;15177;50.844;4.412;2024-02-16T07:13:49;14.80;99.90
27797;DHT22;15177;50.844;4.412;2024-02-16T07:16:14;14.80;99.90
27797;DHT22;15177;50.844;4.412;2024-02-16T07:18:40;14.80;99.90
27797;DHT22;15177;50.844;4.412;2024-02-16T07:21:10;14.70;99.90
27797;DHT22;15177;50.844;4.412;2024-02-16T07:23:38;14.70;99.90
27797;DHT22;15177;50.844;4.412;2024-02-16T07:26:09;14.70;99.90
27797;DHT22;15177;50.844;4.412;2024-02-16T07:28:34;14.80;99.90
27797;DHT22;15177;50.844;4.412;2024-02-16T07:31:01;14.80;99.90
27797;DHT22;15177;50.844;4.412;2024-02-16T07:33:26;14.70;99.90
27797;DHT22;15177;50.844;4.412;2024-02-16T07:35:53;14.80;99.90
27797;DHT22;15177;50.844;4.412;2024-02-16T07:38:22;14.80;99.90
27797;DHT22;15177;50.844;4.412;2024-02-16T07:40:47;14.80;99.90
27797;DHT22;15177;50.844;4.412;2024-02-16T07:43:18;14.80;99.90
27797;DHT22;15177;50.844;4.412;2024-02-16T07:45:44;14.80;99.90
27797;DHT22;15177;50.844;4.412;2024-02-16T07:48:10;14.80;99.90
27797;DHT22;15177;50.844;4.412;2024-02-16T07:50:35;14.90;99.90
27797;DHT22;15177;50.844;4.412;2024-02-16T07:53:01;14.80;99.90
27797;DHT22;15177;50.844;4.412;2024-02-16T07:55:29;14.80;99.90
27797;DHT22;15177;50.844;4.412;2024-02-16T07:57:54;14.80;99.90
27797;DHT22;15177;50.844;4.412;2024-02-16T08:00:20;14.80;99.90
27797;DHT22;15177;50.844;4.412;2024-02-16T08:02:46;14.80;99.90
27797;DHT22;15177;50.844;4.412;2024-02-16T08:05:14;14.90;99.90
27797;DHT22;15177;50.844;4.412;2024-02-16T08:07:40;14.90;99.90
27797;DHT22;15177;50.844;4.412;2024-02-16T08:10:10;14.90;99.90
27797;DHT22;15177;50.844;4.412;2024-02-16T08:12:35;14.90;99.90
27797;DHT22;15177;50.844;4.412;2024-02-16T08:15:03;14.90;99.90
27797;DHT22;15177;50.844;4.412;2024-02-16T08:17:39;14.90;99.90
27797;DHT22;15177;50.844;4.412;2024-02-16T08:20:05;15.00;99.90
27797;DHT22;15177;50.844;4.412;2024-02-16T08:22:31;15.00;99.90
27797;DHT22;15177;50.844;4.412;2024-02-16T08:25:00;15.00;99.90
27797;DHT22;15177;50.844;4.412;2024-02-16T08:27:26;15.00;99.90
27797;DHT22;15177;50.844;4.412;2024-02-16T08:29:54;15.00;99.90
27797;DHT22;15177;50.844;4.412;2024-02-16T08:32:19;15.00;99.90
27797;DHT22;15177;50.844;4.412;2024-02-16T08:34:46;15.00;99.90
27797;DHT22;15177;50.844;4.412;2024-02-16T08:37:13;15.00;99.90
27797;DHT22;15177;50.844;4.412;2024-02-16T08:39:39;14.90;99.90
27797;DHT22;15177;50.844;4.412;2024-02-16T08:42:09;14.90;99.90
27797;DHT22;15177;50.844;4.412;2024-02-16T08:44:39;14.90;99.90
27797;DHT22;15177;50.844;4.412;2024-02-16T08:47:08;14.90;99.90
27797;DHT22;15177;50.844;4.412;2024-02-16T08:49:34;14.80;99.90
27797;DHT22;15177;50.844;4.412;2024-02-16T08:52:05;14.80;99.90
27797;DHT22;15177;50.844;4.412;2024-02-16T08:54:31;14.80;99.90
27797;DHT22;15177;50.844;4.412;2024-02-16T08:56:57;14.70;99.90
27797;DHT22;15177;50.844;4.412;2024-02-16T08:59:25;14.70;99.90
27797;DHT22;15177;50.844;4.412;2024-02-16T09:01:52;14.60;99.90
27797;DHT22;15177;50.844;4.412;2024-02-16T09:04:17;14.60;99.90
27797;DHT22;15177;50.844;4.412;2024-02-16T09:06:44;14.60;99.90
27797;DHT22;15177;50.844;4.412;2024-02-16T09:09:10;14.80;99.90
27797;DHT22;15177;50.844;4.412;2024-02-16T09:11:36;14.80;99.90
27797;DHT22;15177;50.844;4.412;2024-02-16T09:14:02;14.80;99.90
27797;DHT22;15177;50.844;4.412;2024-02-16T09:16:31;14.90;99.90
27797;DHT22;15177;50.844;4.412;2024-02-16T09:19:02;14.90;99.90
27797;DHT22;15177;50.844;4.412;2024-02-16T09:21:27;14.90;99.90
27797;DHT22;15177;50.844;4.412;2024-02-16T09:23:56;15.00;99.90
27797;DHT22;15177;50.844;4.412;2024-02-16T09:26:27;15.00;99.90
27797;DHT22;15177;50.844;4.412;2024-02-16T09:28:58;15.00;99.90
27797;DHT22;15177;50.844;4.412;2024-02-16T09:31:23;15.00;99.90
27797;DHT22;15177;50.844;4.412;2024-02-16T09:33:50;15.00;99.90
27797;DHT22;15177;50.844;4.412;2024-02-16T09:36:17;15.00;99.90
27797;DHT22;15177;50.844;4.412;2024-02-16T09:38:43;15.00;99.90
27797;DHT22;15177;50.844;4.412;2024-02-16T09:41:09;14.90;99.90
27797;DHT22;15177;50.844;4.412;2024-02-16T09:43:37;14.80;99.90
27797;DHT22;15177;50.844;4.412;2024-02-16T09:46:05;14.80;99.90
27797;DHT22;15177;50.844;4.412;2024-02-16T09:48:31;14.80;99.90
27797;DHT22;15177;50.844;4.412;2024-02-16T09:50:57;14.80;99.90
27797;DHT22;15177;50.844;4.412;2024-02-16T09:53:27;14.90;99.90
27797;DHT22;15177;50.844;4.412;2024-02-16T09:55:56;14.90;99.90
27797;DHT22;15177;50.844;4.412;2024-02-16T09:58:22;14.90;99.90
27797;DHT22;15177;50.844;4.412;2024-02-16T10:00:54;15.00;99.90
27797;DHT22;15177;50.844;4.412;2024-02-16T10:03:27;14.90;99.90
27797;DHT22;15177;50.844;4.412;2024-02-16T10:06:07;14.90;99.90
27797;DHT22;15177;50.844;4.412;2024-02-16T10:08:34;15.00;99.90
27797;DHT22;15177;50.844;4.412;2024-02-16T10:11:05;15.00;99.90
27797;DHT22;15177;50.844;4.412;2024-02-16T10:13:31;15.10;99.90
27797;DHT22;15177;50.844;4.412;2024-02-16T10:16:10;15.10;99.90
27797;DHT22;15177;50.844;4.412;2024-02-16T10:18:37;15.10;99.90
27797;DHT22;15177;50.844;4.412;2024-02-16T10:21:04;15.10;99.90
27797;DHT22;15177;50.844;4.412;2024-02-16T10:23:30;15.20;99.90
27797;DHT22;15177;50.844;4.412;2024-02-16T10:25:56;15.20;99.90
27797;DHT22;15177;50.844;4.412;2024-02-16T10:28:24;15.20;99.90
27797;DHT22;15177;50.844;4.412;2024-02-16T10:30:58;15.20;99.90
27797;DHT22;15177;50.844;4.412;2024-02-16T10:33:28;15.30;99.90
27797;DHT22;15177;50.844;4.412;2024-02-16T10:35:56;15.30;99.90
27797;DHT22;15177;50.844;4.412;2024-02-16T10:38:25;15.30;99.90
27797;DHT22;15177;50.844;4.412;2024-02-16T10:40:53;15.30;99.90
27797;DHT22;15177;50.844;4.412;2024-02-16T10:43:23;15.30;99.90
27797;DHT22;15177;50.844;4.412;2024-02-16T10:45:49;15.20;99.90
27797;DHT22;15177;50.844;4.412;2024-02-16T10:48:18;15.20;99.90
27797;DHT22;15177;50.844;4.412;2024-02-16T10:50:46;15.20;99.90
27797;DHT22;15177;50.844;4.412;2024-02-16T10:53:26;15.10;99.90
27797;DHT22;15177;50.844;4.412;2024-02-16T10:55:59;15.10;99.90
27797;DHT22;15177;50.844;4.412;2024-02-16T10:58:28;15.10;99.90
27797;DHT22;15177;50.844;4.412;2024-02-16T11:00:55;15.10;99.90
27797;DHT22;15177;50.844;4.412;2024-02-16T11:03:27;15.10;99.90
27797;DHT22;15177;50.844;4.412;2024-02-16T11:05:54;15.10;99.90
27797;DHT22;15177;50.844;4.412;2024-02-16T11:08:24;15.10;99.90
27797;DHT22;15177;50.844;4.412;2024-02-16T11:11:00;15.10;99.90
27797;DHT22;15177;50.844;4.412;2024-02-16T11:13:27;15.00;99.90
27797;DHT22;15177;50.844;4.412;2024-02-16T11:16:02;14.90;99.90
27797;DHT22;15177;50.844;4.412;2024-02-16T11:18:32;15.00;99.90
27797;DHT22;15177;50.844;4.412;2024-02-16T11:21:01;14.90;99.90
27797;DHT22;15177;50.844;4.412;2024-02-16T11:23:31;14.90;99.90
27797;DHT22;15177;50.844;4.412;2024-02-16T11:26:05;14.90;99.90
27797;DHT22;15177;50.844;4.412;2024-02-16T11:28:35;14.80;99.90
27797;DHT22;15177;50.844;4.412;2024-02-16T11:31:01;14.90;99.90
27797;DHT22;15177;50.844;4.412;2024-02-16T11:33:28;14.70;99.90
27797;DHT22;15177;50.844;4.412;2024-02-16T11:38:26;14.70;99.90
27797;DHT22;15177;50.844;4.412;2024-02-16T11:40:59;14.70;99.90
27797;DHT22;15177;50.844;4.412;2024-02-16T11:43:28;14.70;99.90
27797;DHT22;15177;50.844;4.412;2024-02-16T11:45:54;14.70;99.90
27797;DHT22;15177;50.844;4.412;2024-02-16T11:48:24;14.70;99.90
27797;DHT22;15177;50.844;4.412;2024-02-16T11:50:59;14.70;99.90
27797;DHT22;15177;50.844;4.412;2024-02-16T11:53:27;14.70;99.90
27797;DHT22;15177;50.844;4.412;2024-02-16T11:55:55;14.70;99.90
27797;DHT22;15177;50.844;4.412;2024-02-16T11:58:21;14.70;99.90
27797;DHT22;15177;50.844;4.412;2024-02-16T12:00:48;14.60;99.90
27797;DHT22;15177;50.844;4.412;2024-02-16T12:03:21;14.70;99.90
27797;DHT22;15177;50.844;4.412;2024-02-16T12:05:59;14.70;99.90
27797;DHT22;15177;50.844;4.412;2024-02-16T12:08:32;14.70;99.90
27797;DHT22;15177;50.844;4.412;2024-02-16T12:11:02;14.60;99.90
27797;DHT22;15177;50.844;4.412;2024-02-16T12:13:32;14.50;99.90
27797;DHT22;15177;50.844;4.412;2024-02-16T12:15:58;14.60;99.90
27797;DHT22;15177;50.844;4.412;2024-02-16T12:18:27;14.60;99.90
27797;DHT22;15177;50.844;4.412;2024-02-16T12:23:27;14.60;99.90
27797;DHT22;15177;50.844;4.412;2024-02-16T12:25:56;14.60;99.90
27797;DHT22;15177;50.844;4.412;2024-02-16T12:28:26;14.60;99.90
27797;DHT22;15177;50.844;4.412;2024-02-16T12:30:54;14.50;99.90
27797;DHT22;15177;50.844;4.412;2024-02-16T12:33:20;14.40;99.90
27797;DHT22;15177;50.844;4.412;2024-02-16T12:35:49;14.40;99.90
27797;DHT22;15177;50.844;4.412;2024-02-16T12:38:15;14.40;99.90
27797;DHT22;15177;50.844;4.412;2024-02-16T12:40:50;14.40;99.90
27797;DHT22;15177;50.844;4.412;2024-02-16T12:43:16;14.30;99.90
27797;DHT22;15177;50.844;4.412;2024-02-16T12:45:42;14.30;99.90
27797;DHT22;15177;50.844;4.412;2024-02-16T12:48:10;14.20;99.90
27797;DHT22;15177;50.844;4.412;2024-02-16T12:50:38;14.10;99.90
27797;DHT22;15177;50.844;4.412;2024-02-16T12:53:04;14.00;99.90
27797;DHT22;15177;50.844;4.412;2024-02-16T12:55:30;14.00;99.90
27797;DHT22;15177;50.844;4.412;2024-02-16T12:57:56;13.90;99.90
27797;DHT22;15177;50.844;4.412;2024-02-16T13:00:22;13.80;99.90
27797;DHT22;15177;50.844;4.412;2024-02-16T13:02:48;13.80;99.90
27797;DHT22;15177;50.844;4.412;2024-02-16T13:05:16;13.70;99.90
27797;DHT22;15177;50.844;4.412;2024-02-16T13:07:41;13.60;99.90
27797;DHT22;15177;50.844;4.412;2024-02-16T13:10:10;13.60;99.90
27797;DHT22;15177;50.844;4.412;2024-02-16T13:12:36;13.60;99.90
27797;DHT22;15177;50.844;4.412;2024-02-16T13:15:03;13.70;99.90
27797;DHT22;15177;50.844;4.412;2024-02-16T13:17:30;13.70;99.90
27797;DHT22;15177;50.844;4.412;2024-02-16T13:19:55;13.60;99.90
27797;DHT22;15177;50.844;4.412;2024-02-16T13:22:28;13.60;99.90
27797;DHT22;15177;50.844;4.412;2024-02-16T13:24:54;13.70;99.90
27797;DHT22;15177;50.844;4.412;2024-02-16T13:27:19;13.90;99.90
27797;DHT22;15177;50.844;4.412;2024-02-16T13:29:45;14.00;99.90
27797;DHT22;15177;50.844;4.412;2024-02-16T13:32:11;14.00;99.90
27797;DHT22;15177;50.844;4.412;2024-02-16T13:34:39;14.10;99.90
27797;DHT22;15177;50.844;4.412;2024-02-16T13:37:07;14.20;99.90
27797;DHT22;15177;50.844;4.412;2024-02-16T13:39:32;14.10;99.90
27797;DHT22;15177;50.844;4.412;2024-02-16T13:41:58;14.00;99.90
27797;DHT22;15177;50.844;4.412;2024-02-16T13:44:26;14.20;99.90
27797;DHT22;15177;50.844;4.412;2024-02-16T13:46:54;14.30;99.90
27797;DHT22;15177;50.844;4.412;2024-02-16T13:49:25;14.30;99.90
27797;DHT22;15177;50.844;4.412;2024-02-16T13:51:56;14.40;99.90
27797;DHT22;15177;50.844;4.412;2024-02-16T13:54:25;14.40;99.90
27797;DHT22;15177;50.844;4.412;2024-02-16T13:56:53;14.30;99.90
27797;DHT22;15177;50.844;4.412;2024-02-16T13:59:19;14.40;99.90
27797;DHT22;15177;50.844;4.412;2024-02-16T14:01:45;14.40;99.90
27797;DHT22;15177;50.844;4.412;2024-02-16T14:04:11;14.50;99.90
27797;DHT22;15177;50.844;4.412;2024-02-16T14:06:39;14.40;99.90
27797;DHT22;15177;50.844;4.412;2024-02-16T14:09:07;14.50;99.90
27797;DHT22;15177;50.844;4.412;2024-02-16T14:11:37;14.60;99.90
27797;DHT22;15177;50.844;4.412;2024-02-16T14:14:03;14.60;99.90
27797;DHT22;15177;50.844;4.412;2024-02-16T14:16:32;14.70;99.90
27797;DHT22;15177;50.844;4.412;2024-02-16T14:18:57;14.60;99.90
27797;DHT22;15177;50.844;4.412;2024-02-16T14:21:25;14.50;99.90
27797;DHT22;15177;50.844;4.412;2024-02-16T14:23:53;14.50;99.90
27797;DHT22;15177;50.844;4.412;2024-02-16T14:26:19;14.50;99.90
27797;DHT22;15177;50.844;4.412;2024-02-16T14:28:45;14.50;99.90
27797;DHT22;15177;50.844;4.412;2024-02-16T14:31:13;14.60;99.90
27797;DHT22;15177;50.844;4.412;2024-02-16T14:33:39;14.70;99.90
27797;DHT22;15177;50.844;4.412;2024-02-16T14:36:06;14.40;99.90
27797;DHT22;15177;50.844;4.412;2024-02-16T14:38:35;14.30;99.90
27797;DHT22;15177;50.844;4.412;2024-02-16T14:41:00;14.40;99.90
27797;DHT22;15177;50.844;4.412;2024-02-16T14:43:29;14.50;99.90
27797;DHT22;15177;50.844;4.412;2024-02-16T14:45:57;14.60;99.90
27797;DHT22;15177;50.844;4.412;2024-02-16T14:48:23;14.60;99.90
27797;DHT22;15177;50.844;4.412;2024-02-16T14:50:51;14.60;99.90
27797;DHT22;15177;50.844;4.412;2024-02-16T14:53:21;14.60;99.90
27797;DHT22;15177;50.844;4.412;2024-02-16T14:55:48;14.60;99.90
27797;DHT22;15177;50.844;4.412;2024-02-16T14:58:16;14.60;99.90
27797;DHT22;15177;50.844;4.412;2024-02-16T15:00:43;14.60;99.90
27797;DHT22;15177;50.844;4.412;2024-02-16T15:03:12;14.50;99.90
27797;DHT22;15177;50.844;4.412;2024-02-16T15:05:43;14.60;99.90
27797;DHT22;15177;50.844;4.412;2024-02-16T15:08:09;14.60;99.90
27797;DHT22;15177;50.844;4.412;2024-02-16T15:10:35;14.70;99.90
27797;DHT22;15177;50.844;4.412;2024-02-16T15:13:03;14.80;99.90
27797;DHT22;15177;50.844;4.412;2024-02-16T15:15:29;14.80;99.90
27797;DHT22;15177;50.844;4.412;2024-02-16T15:17:54;15.00;99.90
27797;DHT22;15177;50.844;4.412;2024-02-16T15:20:28;15.00;99.90
27797;DHT22;15177;50.844;4.412;2024-02-16T15:22:54;14.80;99.90
27797;DHT22;15177;50.844;4.412;2024-02-16T15:25:25;14.90;99.90
27797;DHT22;15177;50.844;4.412;2024-02-16T15:27:51;14.90;99.90
27797;DHT22;15177;50.844;4.412;2024-02-16T15:30:18;14.70;99.90
27797;DHT22;15177;50.844;4.412;2024-02-16T15:32:46;14.70;99.90
27797;DHT22;15177;50.844;4.412;2024-02-16T15:35:14;14.60;99.90
27797;DHT22;15177;50.844;4.412;2024-02-16T15:37:39;14.60;99.90